Catalina, Canada
Current Conditions -  °F | °C
As of 8:00 PM on Thursday 18 Dec 2014 (Local Time) from CYYT Reporting Station
Light Rain Light Rain  
Wind Chill: 30°   Ceiling: 200
Heat Index: 39°   Visibility: 0.5mi
Dew Point: 39°   Wind: 16mph
Humidity: 100%   Direction: 140°SE
Pressure: 29.73"   Gusts: NA
Location:  48.52°N, 53.08°W
Report Text: CYYT 182300Z 14014KT 1/2SM R11/P6000FT/U R16/5500VP6000FT/U -RA FG VV002 04/04 A2973 RMK FG8 SLP074
Loading
Personal Weather Stations






























Interactive Weather Map New forecast layout! Learn more

10-Day Weather Forecast

Advertisements
Track Severe Weather on mobile